Terminal Aerodrome Forecast
Issued by NWS Goodland, KS

Home | Current Version | Previous Version | Text Only | Print | Product List | Glossary Off
Versions: 1 2 3 4 5 6 7 8 9 10 11 12 13 14 15 16

800
FTUS43 KGLD 240520
TAFGLD
TAF
KGLD 240520Z 2406/2506 VRB04KT P6SM FEW080 SCT150
     FM241900 12010KT P6SM SCT080 BKN100=

USA.gov is the U.S. government's official web portal to all federal, state and local government web resources and services.